Time;durP1;ratioP1;P1;durP2;ratioP2;P2;SDS_P1;SDS_P2;PMS_P1;PMS_P2;Temp;Humidity;BMP_temperature;BMP_pressure;BME280_temperature;BME280_humidity;BME280_pressure;Samples;Min_cycle;Max_cycle;Signal;HPM_P1;HPM_P2
2022/12/04 00:01:29;;;;;;;0.08;0.08;;;;;;;4.70;85.65;100356.78;6181377;23;20087;-80
2022/12/04 00:04:00;;;;;;;0.00;0.00;;;;;;;4.66;85.75;100355.56;6154522;23;20008;-80
2022/12/04 00:06:27;;;;;;;0.00;0.00;;;;;;;4.72;85.66;100362.78;6181726;23;20008;-79
2022/12/04 00:08:52;;;;;;;0.00;0.00;;;;;;;4.74;85.99;100361.72;6179083;23;20009;-80
2022/12/04 00:11:23;;;;;;;0.00;0.00;;;;;;;4.78;85.49;100362.94;6161085;23;20088;-79
2022/12/04 00:13:52;;;;;;;0.00;0.00;;;;;;;4.83;85.96;100366.63;6185366;23;20021;-79
2022/12/04 00:16:31;;;;;;;0.00;0.00;;;;;;;4.91;85.41;100370.88;6185371;23;20422;-81
2022/12/04 00:19:02;;;;;;;0.00;0.00;;;;;;;4.78;85.13;100349.38;6178603;23;20063;-80
2022/12/04 00:21:27;;;;;;;0.00;0.00;;;;;;;4.81;85.31;100368.69;6161333;23;20029;-81
2022/12/04 00:23:53;;;;;;;0.00;0.00;;;;;;;4.84;85.01;100378.25;6133059;23;20489;-81
2022/12/04 00:26:22;;;;;;;0.00;0.00;;;;;;;4.94;85.21;100378.53;6161077;23;20344;-82
2022/12/04 00:28:48;;;;;;;0.00;0.00;;;;;;;4.95;84.74;100380.19;6184123;23;20009;-81
2022/12/04 00:31:24;;;;;;;0.00;0.00;;;;;;;4.96;85.31;100368.28;6178479;23;20005;-82
2022/12/04 00:33:50;;;;;;;0.00;0.00;;;;;;;4.81;84.69;100341.63;6186428;23;20052;-81
2022/12/04 00:36:18;;;;;;;0.00;0.00;;;;;;;4.94;83.76;100356.88;6153956;23;20143;-76
2022/12/04 00:38:46;;;;;;;0.00;0.00;;;;;;;4.75;83.74;100337.13;6183138;23;20011;-78
2022/12/04 00:41:14;;;;;;;0.10;0.10;;;;;;;4.84;84.01;100356.59;6154110;23;20020;-78
2022/12/04 00:43:40;;;;;;;0.00;0.00;;;;;;;4.74;84.11;100343.59;6181202;23;20355;-79
2022/12/04 00:46:08;;;;;;;0.00;0.00;;;;;;;4.75;83.62;100357.97;6179993;23;20060;-77
2022/12/04 00:48:34;;;;;;;0.00;0.00;;;;;;;4.72;83.85;100346.53;6178705;23;20005;-77
2022/12/04 00:51:05;;;;;;;0.00;0.00;;;;;;;4.62;83.68;100338.13;6178616;23;20005;-78
2022/12/04 00:53:30;;;;;;;0.00;0.00;;;;;;;4.68;84.14;100331.78;6174189;23;20009;-77
2022/12/04 00:55:56;;;;;;;0.00;0.00;;;;;;;4.67;83.92;100330.16;6178499;23;20009;-78
2022/12/04 00:58:24;;;;;;;0.00;0.00;;;;;;;4.66;83.75;100331.19;6153141;23;20340;-79
2022/12/04 01:01:02;;;;;;;0.00;0.00;;;;;;;4.73;84.06;100352.75;6184217;23;20329;-77
2022/12/04 01:03:28;;;;;;;0.00;0.00;;;;;;;4.65;83.48;100344.97;6182141;23;20084;-79
2022/12/04 01:05:53;;;;;;;0.00;0.00;;;;;;;4.48;83.36;100320.38;6158349;23;20015;-78
2022/12/04 01:08:19;;;;;;;0.00;0.00;;;;;;;4.50;83.35;100342.66;6154413;23;20005;-77
2022/12/04 01:10:44;;;;;;;0.00;0.00;;;;;;;4.40;83.83;100345.91;6178826;23;20428;-78
2022/12/04 01:13:09;;;;;;;0.00;0.00;;;;;;;4.34;84.51;100344.94;6132334;23;20013;-76
2022/12/04 01:15:42;;;;;;;0.00;0.00;;;;;;;4.31;84.35;100352.69;6155034;23;20092;-76
2022/12/04 01:18:10;;;;;;;0.00;0.00;;;;;;;4.18;84.78;100334.72;6184212;23;20011;-80
2022/12/04 01:20:36;;;;;;;0.00;0.00;;;;;;;4.11;83.88;100325.84;6179736;23;19997;-80
2022/12/04 01:23:02;;;;;;;0.00;0.00;;;;;;;4.14;85.13;100342.44;6178994;23;20009;-79
2022/12/04 01:25:27;;;;;;;0.00;0.00;;;;;;;4.06;84.77;100333.78;6155606;23;20068;-79
2022/12/04 01:27:52;;;;;;;0.10;0.10;;;;;;;4.13;85.41;100334.56;6152429;23;20016;-79
2022/12/04 01:30:18;;;;;;;0.00;0.00;;;;;;;4.13;84.96;100321.00;6131197;23;20154;-81
2022/12/04 01:32:44;;;;;;;0.00;0.00;;;;;;;4.20;84.41;100321.78;6179387;23;20017;-81
2022/12/04 01:35:09;;;;;;;0.00;0.00;;;;;;;4.22;85.21;100306.16;6178916;23;20388;-81
2022/12/04 01:37:34;;;;;;;0.00;0.00;;;;;;;4.26;85.06;100314.63;6131989;23;20336;-79
2022/12/04 01:40:00;;;;;;;0.00;0.00;;;;;;;4.22;84.72;100300.72;6127735;23;20328;-79
2022/12/04 01:42:26;;;;;;;0.00;0.00;;;;;;;4.35;84.57;100316.81;6148517;23;20113;-82
2022/12/04 01:45:32;;;;;;;0.05;0.05;;;;;;;4.36;83.88;100313.03;6175920;23;20004;-82
2022/12/04 01:48:18;;;;;;;0.00;0.00;;;;;;;4.33;83.73;100302.66;6176415;23;20008;-81
2022/12/04 01:50:44;;;;;;;0.03;0.03;;;;;;;4.45;83.90;100304.59;6181941;23;20005;-82
2022/12/04 01:53:11;;;;;;;0.00;0.00;;;;;;;4.45;83.20;100304.59;6150803;23;20020;-82
2022/12/04 01:55:40;;;;;;;0.00;0.00;;;;;;;4.63;83.47;100312.69;6156894;23;20005;-81
2022/12/04 01:58:09;;;;;;;0.00;0.00;;;;;;;4.64;82.74;100308.09;6182292;23;20005;-80
2022/12/04 02:00:34;;;;;;;0.00;0.00;;;;;;;4.54;82.17;100301.34;6154851;23;20009;-80
2022/12/04 02:03:00;;;;;;;0.00;0.00;;;;;;;4.51;82.99;100292.84;6181574;23;20465;-80
2022/12/04 02:05:25;;;;;;;0.00;0.00;;;;;;;4.58;82.77;100303.59;6155612;23;20020;-82
2022/12/04 02:07:56;;;;;;;0.00;0.00;;;;;;;4.58;82.59;100304.41;6155556;23;20009;-80
2022/12/04 02:10:30;;;;;;;0.00;0.00;;;;;;;4.57;83.56;100300.06;6179419;23;20096;-81
2022/12/04 02:13:11;;;;;;;0.00;0.00;;;;;;;4.56;82.91;100301.13;6185785;23;20076;-79
2022/12/04 02:16:01;;;;;;;0.00;0.00;;;;;;;4.64;82.27;100303.50;6179540;23;20000;-80
2022/12/04 02:18:47;;;;;;;0.10;0.10;;;;;;;4.63;82.16;100299.16;6183024;23;20004;-80
2022/12/04 02:21:35;;;;;;;0.00;0.00;;;;;;;4.66;82.28;100295.97;6185309;23;20424;-77
2022/12/04 02:24:25;;;;;;;0.00;0.00;;;;;;;4.66;82.67;100290.56;6184738;23;19996;-79
2022/12/04 02:27:06;;;;;;;0.00;0.00;;;;;;;4.70;82.41;100296.34;6183631;23;20427;-79
2022/12/04 02:29:51;;;;;;;0.00;0.00;;;;;;;4.65;82.57;100288.91;6178704;23;20084;-79
2022/12/04 02:32:36;;;;;;;0.10;0.10;;;;;;;4.67;83.08;100297.63;6185754;23;20424;-80
2022/12/04 02:35:18;;;;;;;0.00;0.00;;;;;;;4.76;82.94;100278.34;6183297;23;20004;-79
2022/12/04 02:37:50;;;;;;;0.00;0.00;;;;;;;4.78;82.80;100287.06;6205544;23;20439;-79
2022/12/04 02:40:35;;;;;;;0.00;0.00;;;;;;;4.68;82.14;100288.44;6212499;23;20003;-80
2022/12/04 02:43:15;;;;;;;0.00;0.00;;;;;;;4.71;82.05;100303.41;6179589;23;20012;-79
2022/12/04 02:45:53;;;;;;;0.00;0.00;;;;;;;4.74;82.14;100302.13;6188825;23;20000;-79
2022/12/04 02:48:20;;;;;;;0.00;0.00;;;;;;;4.75;82.71;100287.53;6209594;23;20019;-79
2022/12/04 02:50:49;;;;;;;0.00;0.00;;;;;;;4.86;82.29;100303.81;6187231;23;20043;-79
2022/12/04 02:53:28;;;;;;;0.00;0.00;;;;;;;4.88;82.45;100295.47;6186437;23;19996;-80
2022/12/04 02:55:59;;;;;;;0.10;0.10;;;;;;;5.00;82.27;100295.50;6211405;23;20079;-80
2022/12/04 02:58:28;;;;;;;0.00;0.00;;;;;;;5.02;82.18;100298.78;6183622;23;20035;-79
2022/12/04 03:00:56;;;;;;;0.00;0.00;;;;;;;4.94;81.71;100285.59;6182485;23;20000;-80
2022/12/04 03:03:30;;;;;;;0.00;0.00;;;;;;;4.81;82.11;100267.63;6180640;23;19993;-81
2022/12/04 03:06:01;;;;;;;0.05;0.05;;;;;;;4.86;81.39;100268.59;6184702;23;20051;-79
2022/12/04 03:08:42;;;;;;;0.00;0.00;;;;;;;5.05;82.00;100299.16;6179199;23;20013;-79
2022/12/04 03:11:07;;;;;;;0.00;0.00;;;;;;;4.99;81.48;100288.41;6185544;23;20487;-80
2022/12/04 03:14:08;;;;;;;0.00;0.00;;;;;;;5.04;81.66;100294.78;6130559;23;20016;-79
2022/12/04 03:16:38;;;;;;;0.00;0.00;;;;;;;4.94;80.26;100285.59;6153553;23;20005;-80
2022/12/04 03:19:13;;;;;;;0.00;0.00;;;;;;;4.94;80.97;100294.53;6208647;23;20478;-80
2022/12/04 03:21:45;;;;;;;0.00;0.00;;;;;;;4.92;80.55;100287.69;6187558;23;20009;-80
2022/12/04 03:24:23;;;;;;;0.00;0.00;;;;;;;5.07;80.99;100288.09;6177389;23;20004;-81
2022/12/04 03:26:57;;;;;;;0.00;0.00;;;;;;;5.10;80.25;100292.22;6182570;23;20001;-80
2022/12/04 03:29:38;;;;;;;0.10;0.10;;;;;;;5.09;80.31;100282.44;6181185;23;20062;-83
2022/12/04 03:32:12;;;;;;;0.00;0.00;;;;;;;5.05;80.03;100276.63;6183963;23;20071;-78
2022/12/04 03:35:00;;;;;;;0.00;0.00;;;;;;;4.97;80.22;100258.84;6184551;23;20079;-82
2022/12/04 03:37:45;;;;;;;0.00;0.00;;;;;;;5.04;80.22;100275.81;6177715;23;20008;-80
2022/12/04 03:40:22;;;;;;;0.00;0.00;;;;;;;4.94;79.81;100269.31;6182597;23;20005;-81
2022/12/04 03:42:55;;;;;;;0.00;0.00;;;;;;;4.91;79.37;100278.75;6176943;23;20015;-80
2022/12/04 03:45:42;;;;;;;0.00;0.00;;;;;;;4.95;80.43;100271.81;6182054;23;20470;-80
2022/12/04 03:48:35;;;;;;;0.00;0.00;;;;;;;4.95;80.31;100268.25;6180491;23;20008;-80
2022/12/04 03:51:18;;;;;;;0.00;0.00;;;;;;;4.91;79.96;100259.78;6177670;23;20005;-80
2022/12/04 03:53:55;;;;;;;0.05;0.05;;;;;;;4.90;79.75;100264.34;6180636;23;20012;-82
2022/12/04 03:56:25;;;;;;;0.00;0.00;;;;;;;4.84;79.76;100257.16;6176436;23;20000;-79
2022/12/04 03:58:57;;;;;;;0.10;0.10;;;;;;;4.93;79.54;100273.09;6181160;23;20415;-81
2022/12/04 04:01:33;;;;;;;0.08;0.08;;;;;;;4.74;79.43;100253.38;6177079;23;20011;-81
2022/12/04 04:04:04;;;;;;;0.00;0.00;;;;;;;4.74;79.68;100258.78;6185717;23;20001;-80
2022/12/04 04:06:54;;;;;;;0.00;0.00;;;;;;;4.77;80.09;100263.75;6158612;23;20021;-81
2022/12/04 04:09:25;;;;;;;0.10;0.10;;;;;;;4.72;79.06;100267.97;6186148;23;20423;-80
2022/12/04 04:12:06;;;;;;;0.00;0.00;;;;;;;4.79;79.43;100283.28;6181440;23;20028;-81
2022/12/04 04:25:56;;;;;;;0.00;0.00;;;;;;;4.80;79.80;100263.28;6210664;23;20020;-80
2022/12/04 04:28:34;;;;;;;0.00;0.00;;;;;;;4.69;79.92;100244.06;6182303;23;20331;-80
2022/12/04 04:31:08;;;;;;;0.00;0.00;;;;;;;4.82;78.73;100244.88;6182896;23;20008;-81
2022/12/04 04:33:58;;;;;;;0.00;0.00;;;;;;;4.95;79.47;100258.25;6206675;23;20029;-80
2022/12/04 04:36:30;;;;;;;0.00;0.00;;;;;;;4.96;79.05;100256.34;6185053;23;20011;-80
2022/12/04 04:39:06;;;;;;;0.00;0.00;;;;;;;5.00;78.50;100268.38;6206590;23;20000;-81
2022/12/04 04:41:41;;;;;;;0.10;0.10;;;;;;;4.93;78.56;100257.66;6211228;23;20001;-80
2022/12/04 04:44:38;;;;;;;0.05;0.05;;;;;;;4.96;78.19;100259.88;6180948;23;20000;-78
2022/12/04 04:47:09;;;;;;;0.00;0.00;;;;;;;4.98;78.36;100265.91;6208028;23;20031;-81
2022/12/04 04:49:36;;;;;;;0.10;0.10;;;;;;;4.99;78.42;100262.13;6183894;23;20000;-80
2022/12/04 04:52:02;;;;;;;0.00;0.00;;;;;;;5.03;78.27;100268.75;6185542;23;20019;-79
2022/12/04 04:54:29;;;;;;;0.00;0.00;;;;;;;4.94;77.76;100259.31;6180351;23;20016;-80
2022/12/04 04:56:55;;;;;;;0.00;0.00;;;;;;;4.92;78.43;100255.16;6210305;23;20080;-80
2022/12/04 04:59:20;;;;;;;0.00;0.00;;;;;;;4.98;77.84;100254.22;6181738;23;20024;-79
2022/12/04 05:01:46;;;;;;;0.00;0.00;;;;;;;4.94;78.40;100248.47;6154908;23;20005;-79
2022/12/04 05:04:12;;;;;;;0.00;0.00;;;;;;;4.97;78.18;100264.25;6135295;23;20004;-79
2022/12/04 05:06:38;;;;;;;0.00;0.00;;;;;;;4.91;77.36;100254.34;6180024;23;20644;-79
2022/12/04 05:09:04;;;;;;;0.00;0.00;;;;;;;4.87;77.15;100253.16;6134449;23;20032;-78
2022/12/04 05:11:30;;;;;;;0.00;0.00;;;;;;;4.84;77.53;100253.63;6179639;23;20024;-79
2022/12/04 05:13:56;;;;;;;0.00;0.00;;;;;;;4.85;78.08;100252.56;6183708;23;20317;-78
2022/12/04 05:16:21;;;;;;;0.00;0.00;;;;;;;4.81;78.00;100244.06;6184726;23;20012;-80
2022/12/04 05:21:31;;;;;;;0.00;0.00;;;;;;;4.86;78.10;100259.63;6206153;23;20020;-79
2022/12/04 05:23:56;;;;;;;0.00;0.00;;;;;;;4.83;78.73;100251.97;6155806;23;20005;-79
2022/12/04 05:26:22;;;;;;;0.00;0.00;;;;;;;4.79;77.96;100258.91;6184299;23;20032;-79
2022/12/04 05:28:47;;;;;;;0.00;0.00;;;;;;;4.81;78.26;100259.50;6153700;23;20002;-79
2022/12/04 05:31:13;;;;;;;0.00;0.00;;;;;;;4.86;77.17;100262.34;6133181;23;20084;-77
2022/12/04 05:33:40;;;;;;;0.00;0.00;;;;;;;4.85;77.82;100249.88;6154384;23;20004;-78
2022/12/04 05:36:08;;;;;;;0.00;0.00;;;;;;;4.91;78.45;100265.19;6159360;23;20024;-77
2022/12/04 05:38:35;;;;;;;0.00;0.00;;;;;;;4.92;78.10;100261.44;6179786;23;20008;-78
2022/12/04 05:41:03;;;;;;;0.00;0.00;;;;;;;4.94;78.00;100274.75;6183998;23;20009;-78
2022/12/04 05:43:29;;;;;;;0.00;0.00;;;;;;;4.94;77.60;100275.56;6210441;23;20000;-79
2022/12/04 05:46:00;;;;;;;0.00;0.00;;;;;;;4.88;78.42;100265.66;6178440;23;20031;-79
2022/12/04 05:48:25;;;;;;;0.00;0.00;;;;;;;4.86;78.50;100251.50;6183228;23;20004;-80
2022/12/04 05:50:51;;;;;;;0.00;0.00;;;;;;;5.01;77.54;100276.28;6130606;23;20019;-79
2022/12/04 05:53:16;;;;;;;0.00;0.00;;;;;;;4.95;78.21;100265.53;6184371;23;20320;-81
2022/12/04 05:55:41;;;;;;;0.00;0.00;;;;;;;4.98;78.08;100271.34;6158103;23;20119;-79
2022/12/04 05:58:10;;;;;;;0.00;0.00;;;;;;;4.96;78.13;100259.88;6135696;23;21082;-80
2022/12/04 06:00:35;;;;;;;0.00;0.00;;;;;;;4.96;78.79;100257.19;6210371;23;20001;-81
2022/12/04 06:03:01;;;;;;;0.00;0.00;;;;;;;4.97;78.45;100261.53;6179660;23;20000;-79
2022/12/04 06:05:26;;;;;;;0.00;0.00;;;;;;;4.94;78.49;100258.50;6159827;23;20012;-80
2022/12/04 06:07:52;;;;;;;0.00;0.00;;;;;;;4.93;78.13;100260.34;6158932;23;20008;-81
2022/12/04 06:10:20;;;;;;;0.00;0.00;;;;;;;5.03;78.56;100257.06;6155584;23;20051;-79
2022/12/04 06:12:46;;;;;;;0.00;0.00;;;;;;;5.04;78.59;100270.41;6157582;23;20016;-77
2022/12/04 06:15:11;;;;;;;0.00;0.00;;;;;;;5.04;78.24;100264.16;6155289;23;20055;-79
2022/12/04 06:17:37;;;;;;;0.05;0.05;;;;;;;4.98;78.17;100265.91;6159907;23;20015;-79
2022/12/04 06:20:02;;;;;;;0.00;0.00;;;;;;;5.14;78.91;100263.56;6179211;23;20008;-79
2022/12/04 06:22:28;;;;;;;0.00;0.00;;;;;;;5.21;77.79;100253.44;6159836;23;20012;-80
2022/12/04 06:24:55;;;;;;;0.00;0.00;;;;;;;5.19;77.76;100250.16;6183650;23;20013;-81
2022/12/04 06:27:21;;;;;;;0.00;0.00;;;;;;;5.19;77.68;100272.66;6157099;23;20132;-81
2022/12/04 06:29:49;;;;;;;0.00;0.00;;;;;;;4.98;77.82;100249.66;6132245;23;20698;-81
2022/12/04 06:32:14;;;;;;;0.00;0.00;;;;;;;5.02;78.33;100253.56;6180755;23;20004;-81
2022/12/04 06:34:42;;;;;;;0.00;0.00;;;;;;;4.96;77.80;100246.34;6160333;23;20012;-83
2022/12/04 06:37:08;;;;;;;0.03;0.03;;;;;;;4.90;78.40;100241.84;6179942;23;20778;-81
2022/12/04 06:39:33;;;;;;;0.00;0.00;;;;;;;4.96;77.83;100257.19;6134283;23;20004;-81
2022/12/04 06:41:59;;;;;;;0.00;0.00;;;;;;;5.07;78.61;100266.41;6155912;23;20054;-80
2022/12/04 06:44:24;;;;;;;0.00;0.00;;;;;;;5.18;77.77;100272.88;6130754;23;20008;-80
2022/12/04 06:46:49;;;;;;;0.10;0.10;;;;;;;5.12;78.02;100276.53;6160833;23;20009;-82
2022/12/04 06:49:15;;;;;;;0.00;0.00;;;;;;;5.03;78.59;100279.56;6180577;23;20016;-82
2022/12/04 06:51:40;;;;;;;0.00;0.00;;;;;;;4.99;78.36;100272.16;6134012;23;20016;-81
2022/12/04 06:54:06;;;;;;;0.00;0.00;;;;;;;5.04;78.22;100275.81;6180040;23;20382;-81
2022/12/04 06:56:34;;;;;;;0.00;0.00;;;;;;;4.96;78.67;100262.59;6183760;23;20398;-81
2022/12/04 06:59:02;;;;;;;0.08;0.08;;;;;;;5.03;78.66;100263.31;6184033;23;20005;-78
2022/12/04 07:01:30;;;;;;;0.00;0.00;;;;;;;5.09;79.49;100255.31;6177807;23;20111;-78
2022/12/04 07:03:56;;;;;;;0.00;0.00;;;;;;;5.05;78.67;100250.38;6182216;23;20471;-78
2022/12/04 07:06:31;;;;;;;0.00;0.00;;;;;;;5.05;78.78;100247.66;6177720;23;20079;-80
2022/12/04 07:08:58;;;;;;;;;;;;;;;5.04;79.19;100267.69;6184159;23;20011;-79
2022/12/04 07:11:23;;;;;;;0.00;0.00;;;;;;;5.03;79.04;100257.06;6177354;23;20235;-77
2022/12/04 07:13:49;;;;;;;0.00;0.00;;;;;;;5.12;79.84;100271.13;6158376;23;20009;-77
2022/12/04 07:16:18;;;;;;;0.10;0.10;;;;;;;5.17;78.40;100279.34;6206476;23;20740;-80
2022/12/04 07:18:44;;;;;;;0.00;0.00;;;;;;;5.07;78.91;100274.53;6177522;23;20009;-80
2022/12/04 07:21:14;;;;;;;0.00;0.00;;;;;;;4.88;79.14;100247.50;6184523;23;20024;-80
2022/12/04 07:23:44;;;;;;;0.00;0.00;;;;;;;5.09;78.83;100277.00;6176152;23;20016;-81
2022/12/04 07:26:12;;;;;;;0.00;0.00;;;;;;;5.13;79.26;100275.50;6160081;23;20015;-80
2022/12/04 07:28:38;;;;;;;0.00;0.00;;;;;;;5.12;78.59;100280.06;6176528;23;20020;-79
2022/12/04 07:31:17;;;;;;;0.10;0.10;;;;;;;5.02;78.86;100266.25;6158690;23;20013;-80
2022/12/04 07:33:43;;;;;;;0.00;0.00;;;;;;;5.11;79.19;100280.31;6174503;23;20420;-79
2022/12/04 07:36:12;;;;;;;0.00;0.00;;;;;;;5.10;79.73;100278.66;6160184;23;20065;-81
2022/12/04 07:38:38;;;;;;;0.00;0.00;;;;;;;5.02;78.92;100277.94;6180564;23;20036;-80
2022/12/04 07:41:05;;;;;;;0.08;0.08;;;;;;;4.94;79.75;100270.16;6137622;23;20051;-80
2022/12/04 07:43:31;;;;;;;0.00;0.00;;;;;;;4.97;80.29;100285.94;6186029;23;20005;-79
2022/12/04 07:46:07;;;;;;;0.00;0.00;;;;;;;4.96;80.53;100284.28;6183281;23;20036;-78
2022/12/04 07:48:33;;;;;;;0.00;0.00;;;;;;;4.97;79.91;100275.09;6211013;23;20011;-80
2022/12/04 07:51:08;;;;;;;0.10;0.10;;;;;;;5.04;80.38;100283.13;6155556;23;20346;-81
2022/12/04 07:53:37;;;;;;;0.00;0.00;;;;;;;5.06;80.04;100284.53;6184051;23;20469;-82
2022/12/04 07:56:04;;;;;;;0.00;0.00;;;;;;;5.06;80.00;100289.94;6182030;23;20004;-82
2022/12/04 07:58:30;;;;;;;0.00;0.00;;;;;;;5.01;80.24;100284.41;6160780;23;20005;-83
2022/12/04 08:01:14;;;;;;;0.00;0.00;;;;;;;5.13;80.81;100280.91;6178887;23;20010;-82
2022/12/04 08:03:51;;;;;;;0.00;0.00;;;;;;;5.22;80.25;100293.06;6186271;23;20001;-79
2022/12/04 08:06:19;;;;;;;0.00;0.00;;;;;;;5.18;80.26;100283.72;6182642;23;20230;-76
2022/12/04 08:08:48;;;;;;;0.00;0.00;;;;;;;5.22;80.30;100283.03;6182689;23;20032;-78
2022/12/04 08:11:17;;;;;;;0.00;0.00;;;;;;;5.46;81.20;100303.91;6183855;23;20016;-78
2022/12/04 08:14:02;;;;;;;0.00;0.00;;;;;;;5.76;80.35;100292.94;6178819;23;20021;-79
2022/12/04 08:16:35;;;;;;;0.00;0.00;;;;;;;5.78;78.85;100290.81;6178526;23;20008;-77
2022/12/04 08:19:02;;;;;;;0.00;0.00;;;;;;;5.53;78.83;100288.34;6184683;23;20068;-81
2022/12/04 08:21:38;;;;;;;0.00;0.00;;;;;;;5.32;79.40;100304.16;6209864;23;20000;-81
2022/12/04 08:24:04;;;;;;;0.00;0.00;;;;;;;5.03;80.30;100289.59;6180004;23;20001;-82
2022/12/04 08:26:32;;;;;;;0.00;0.00;;;;;;;4.99;80.64;100302.78;6159065;23;20845;-80
2022/12/04 08:29:05;;;;;;;0.00;0.00;;;;;;;4.71;82.05;100282.56;6179893;23;20044;-87
2022/12/04 08:31:33;;;;;;;0.00;0.00;;;;;;;4.70;82.84;100297.19;6164468;23;20305;-83
2022/12/04 08:34:01;;;;;;;0.00;0.00;;;;;;;4.61;82.73;100287.69;6180444;23;20071;-79
2022/12/04 08:36:30;;;;;;;0.00;0.00;;;;;;;4.62;83.14;100300.19;6185783;23;20008;-80
2022/12/04 08:38:56;;;;;;;0.00;0.00;;;;;;;4.59;83.82;100306.06;6154073;23;20067;-82
2022/12/04 08:41:25;;;;;;;0.00;0.00;;;;;;;4.62;84.06;100316.44;6186722;23;20059;-81
2022/12/04 08:43:53;;;;;;;0.00;0.00;;;;;;;4.64;83.84;100318.94;6181934;23;20004;-82
2022/12/04 08:46:19;;;;;;;0.00;0.00;;;;;;;4.52;84.07;100297.22;6210101;23;20419;-80
2022/12/04 08:48:45;;;;;;;0.00;0.00;;;;;;;4.64;84.71;100317.03;6154093;23;20005;-79
2022/12/04 08:51:43;;;;;;;0.00;0.00;;;;;;;4.70;84.52;100318.84;6157492;23;20336;-79
2022/12/04 08:54:14;;;;;;;0.00;0.00;;;;;;;4.67;85.56;100313.06;6174271;23;20011;-80
2022/12/04 08:56:40;;;;;;;0.00;0.00;;;;;;;4.61;85.74;100298.53;6181972;23;20436;-82
2022/12/04 08:59:11;;;;;;;0.00;0.00;;;;;;;4.65;85.66;100305.16;6135385;23;20005;-81
2022/12/04 09:01:37;;;;;;;0.00;0.00;;;;;;;4.79;85.74;100326.63;6177634;23;20339;-81
2022/12/04 09:04:03;;;;;;;0.00;0.00;;;;;;;4.78;86.00;100319.59;6184186;23;20083;-83
2022/12/04 09:06:28;;;;;;;0.00;0.00;;;;;;;4.77;86.13;100324.16;6132826;23;20017;-82
2022/12/04 09:08:55;;;;;;;0.10;0.10;;;;;;;4.75;85.92;100320.88;6160595;23;20040;-81
2022/12/04 09:11:33;;;;;;;0.00;0.00;;;;;;;4.72;86.07;100316.72;6158077;23;20407;-79
2022/12/04 09:14:00;;;;;;;0.00;0.00;;;;;;;4.76;86.04;100311.69;6186740;23;20391;-83
2022/12/04 09:16:26;;;;;;;0.00;0.00;;;;;;;4.72;86.29;100316.72;6184126;23;20005;-86
2022/12/04 09:18:59;;;;;;;0.00;0.00;;;;;;;4.80;86.39;100323.69;6182984;23;20058;-83
2022/12/04 09:21:25;;;;;;;0.00;0.00;;;;;;;4.83;86.58;100322.41;6163272;23;20014;-85
2022/12/04 09:23:50;;;;;;;0.00;0.00;;;;;;;4.88;87.11;100319.84;6136622;23;20009;-82
2022/12/04 09:26:29;;;;;;;0.00;0.00;;;;;;;4.97;87.61;100331.19;6160715;23;20043;-82
2022/12/04 09:28:56;;;;;;;0.00;0.00;;;;;;;4.97;87.35;100333.91;6182736;23;20008;-81
2022/12/04 09:31:23;;;;;;;0.03;0.03;;;;;;;5.05;86.79;100342.53;6160665;23;20439;-80
2022/12/04 09:33:51;;;;;;;0.00;0.00;;;;;;;5.04;87.70;100332.72;6180563;23;20009;-80
2022/12/04 09:36:20;;;;;;;0.00;0.00;;;;;;;5.00;87.87;100325.31;6185481;23;20009;-81
2022/12/04 09:38:48;;;;;;;0.00;0.00;;;;;;;5.01;87.32;100335.91;6157394;23;20008;-81
2022/12/04 09:41:35;;;;;;;0.00;0.00;;;;;;;5.03;88.59;100352.75;6162652;23;20326;-79
2022/12/04 09:44:18;;;;;;;0.00;0.00;;;;;;;4.97;88.32;100350.97;6182047;23;20391;-81
2022/12/04 09:46:55;;;;;;;0.00;0.00;;;;;;;4.94;88.52;100345.22;6185559;23;20008;-81
2022/12/04 09:49:46;;;;;;;0.00;0.00;;;;;;;4.84;88.29;100341.16;6183321;23;20081;-82
2022/12/04 09:52:38;;;;;;;0.00;0.00;;;;;;;4.85;89.20;100358.25;6210040;23;20058;-83
2022/12/04 09:55:15;;;;;;;0.00;0.00;;;;;;;4.76;88.61;100352.31;6164305;23;20087;-83
2022/12/04 09:57:49;;;;;;;0.00;0.00;;;;;;;4.80;89.20;100367.03;6181364;23;20586;-82
2022/12/04 10:00:20;;;;;;;0.00;0.00;;;;;;;4.75;89.42;100356.09;6183769;23;20000;-80
2022/12/04 10:02:53;;;;;;;0.00;0.00;;;;;;;4.78;90.10;100374.59;6184824;23;20458;-82
2022/12/04 10:05:57;;;;;;;0.00;0.00;;;;;;;4.74;90.17;100375.28;6184466;23;20027;-82
2022/12/04 10:08:42;;;;;;;0.00;0.00;;;;;;;4.63;90.67;100366.88;6179728;23;20008;-82
2022/12/04 10:11:15;;;;;;;0.00;0.00;;;;;;;4.72;90.72;100373.63;6214057;23;20017;-81
2022/12/04 10:13:47;;;;;;;0.10;0.10;;;;;;;4.75;90.76;100374.22;6181367;23;20078;-83
2022/12/04 10:16:26;;;;;;;0.00;0.00;;;;;;;4.86;90.64;100379.69;6184135;23;20012;-83
2022/12/04 10:18:57;;;;;;;0.00;0.00;;;;;;;4.86;91.35;100376.16;6185683;23;20092;-81
2022/12/04 10:21:34;;;;;;;0.00;0.00;;;;;;;4.93;91.02;100382.31;6186465;23;20047;-81
2022/12/04 10:24:10;;;;;;;;;;;;;;;;;;;;;
2022/12/04 10:26:43;;;;;;;0.00;0.00;;;;;;;4.92;89.98;100380.66;6210979;23;20080;-84
2022/12/04 10:29:20;;;;;;;0.00;0.00;;;;;;;4.84;89.92;100364.72;6184132;23;20024;-82
2022/12/04 10:31:55;;;;;;;0.00;0.00;;;;;;;4.84;90.65;100362.00;6189903;23;19988;-87
2022/12/04 10:34:30;;;;;;;0.00;0.00;;;;;;;4.99;89.83;100375.94;6186853;23;20012;-82
2022/12/04 10:37:05;;;;;;;0.00;0.00;;;;;;;4.90;89.61;100361.09;6181155;23;20008;-84
2022/12/04 10:39:53;;;;;;;0.00;0.00;;;;;;;4.98;88.40;100374.31;6187558;23;20005;-82
2022/12/04 10:42:35;;;;;;;0.00;0.00;;;;;;;4.89;88.89;100378.38;6183724;23;20008;-83
2022/12/04 10:45:03;;;;;;;0.00;0.00;;;;;;;4.88;88.49;100383.00;6212391;23;20007;-81
2022/12/04 10:47:32;;;;;;;0.00;0.00;;;;;;;4.85;88.31;100378.03;6207199;23;20039;-81
2022/12/04 10:50:01;;;;;;;0.00;0.00;;;;;;;4.95;87.87;100382.06;6160028;23;20032;-80
2022/12/04 10:52:27;;;;;;;0.10;0.10;;;;;;;5.02;88.69;100380.09;6180929;23;20083;-81
2022/12/04 10:54:58;;;;;;;0.00;0.00;;;;;;;5.09;87.75;100369.16;6161733;23;20032;-81
2022/12/04 10:57:42;;;;;;;0.10;0.10;;;;;;;5.12;86.89;100366.00;6204988;23;20008;-79
2022/12/04 11:00:28;;;;;;;0.10;0.10;;;;;;;5.18;87.36;100374.03;6182288;23;20064;-83
2022/12/04 11:02:56;;;;;;;0.00;0.00;;;;;;;5.10;86.61;100360.81;6182379;23;20235;-82
2022/12/04 11:05:28;;;;;;;0.00;0.00;;;;;;;5.01;85.52;100356.78;6186422;23;20020;-83
2022/12/04 11:08:02;;;;;;;0.00;0.00;;;;;;;5.02;85.22;100361.13;6184787;23;20005;-80
2022/12/04 11:10:36;;;;;;;0.00;0.00;;;;;;;5.03;85.10;100362.78;6211287;23;19997;-79
2022/12/04 11:13:05;;;;;;;;;;;;;;;5.10;84.52;100360.00;6185998;23;20004;-80
2022/12/04 11:15:35;;;;;;;0.00;0.00;;;;;;;5.04;84.38;100346.28;6185180;23;20271;-81
2022/12/04 11:18:27;;;;;;;0.00;0.00;;;;;;;5.13;83.36;100356.81;6187072;23;20067;-81
2022/12/04 11:20:59;;;;;;;0.00;0.00;;;;;;;5.13;83.55;100359.53;6189210;23;20008;-82
2022/12/04 11:23:28;;;;;;;0.00;0.00;;;;;;;5.27;83.90;100370.97;6209108;23;20446;-83
2022/12/04 11:25:58;;;;;;;0.00;0.00;;;;;;;5.28;83.90;100349.06;6188530;23;20005;-81
2022/12/04 11:28:29;;;;;;;0.00;0.00;;;;;;;5.40;83.22;100371.63;6186525;23;20004;-80
2022/12/04 11:31:01;;;;;;;0.00;0.00;;;;;;;5.35;83.59;100349.78;6191922;23;20005;-86
2022/12/04 11:33:37;;;;;;;0.00;0.00;;;;;;;5.27;83.01;100344.72;6189074;23;20000;-88
2022/12/04 11:36:27;;;;;;;0.00;0.00;;;;;;;5.32;82.86;100352.94;6190496;23;20007;-84
2022/12/04 11:39:25;;;;;;;;;;;;;;;;;;;;;
2022/12/04 11:42:21;;;;;;;0.00;0.00;;;;;;;5.28;83.86;100340.91;6216637;23;20072;-82
2022/12/04 11:44:57;;;;;;;0.00;0.00;;;;;;;5.47;83.24;100362.53;6186382;23;20367;-82
2022/12/04 11:47:26;;;;;;;0.00;0.00;;;;;;;5.50;84.02;100348.50;6184479;23;20001;-80
2022/12/04 11:50:17;;;;;;;0.00;0.00;;;;;;;5.55;83.19;100351.34;6213352;23;20383;-83
2022/12/04 11:53:19;;;;;;;0.00;0.00;;;;;;;5.66;82.91;100357.84;6183598;23;20082;-81
2022/12/04 11:56:06;;;;;;;0.00;0.00;;;;;;;5.95;83.12;100372.34;6117565;23;20005;-81
2022/12/04 11:59:09;;;;;;;0.00;0.00;;;;;;;6.10;82.42;100370.03;6185193;23;20008;-80
2022/12/04 12:01:53;;;;;;;0.00;0.00;;;;;;;6.18;82.04;100376.97;6189397;23;19988;-81
2022/12/04 12:04:46;;;;;;;0.00;0.00;;;;;;;6.17;82.63;100374.50;6188750;23;20000;-83
2022/12/04 12:07:17;;;;;;;0.00;0.00;;;;;;;6.18;82.30;100368.00;6213792;23;20035;-77
2022/12/04 12:09:51;;;;;;;0.00;0.00;;;;;;;6.17;81.52;100363.63;6184479;23;20309;-80
2022/12/04 12:12:32;;;;;;;0.00;0.00;;;;;;;6.13;81.12;100362.44;6216938;23;20071;-79
2022/12/04 12:15:23;;;;;;;0.00;0.00;;;;;;;6.10;81.54;100361.88;6181991;23;20093;-79